createdAt,value
2023-03-23T15:58:48.739Z,14.80
2023-03-23T16:03:48.157Z,14.80
2023-03-23T16:08:41.078Z,14.50
2023-03-23T16:13:28.048Z,14.50
2023-03-23T16:18:19.784Z,14.40
2023-03-23T16:23:04.605Z,14.40
2023-03-23T16:28:22.567Z,14.50
2023-03-23T16:33:12.190Z,14.30
2023-03-23T16:38:07.051Z,14.30
2023-03-23T16:43:09.108Z,14.20
2023-03-23T16:48:26.660Z,14.00
2023-03-23T16:53:11.825Z,13.90
2023-03-23T16:58:12.922Z,13.80
2023-03-23T17:03:03.397Z,13.60
2023-03-23T17:07:49.224Z,13.50
2023-03-23T17:12:39.769Z,13.40
2023-03-23T17:17:27.908Z,13.40
2023-03-23T17:22:14.400Z,13.30
2023-03-23T17:27:04.015Z,13.30
2023-03-23T17:31:49.938Z,13.10
2023-03-23T17:36:37.439Z,13.00
2023-03-23T17:41:25.734Z,12.80
2023-03-23T17:46:11.765Z,12.70
2023-03-23T17:51:02.500Z,12.60
2023-03-23T17:55:49.587Z,12.40
2023-03-23T18:00:39.758Z,12.20
2023-03-23T18:05:27.871Z,12.00
2023-03-23T18:10:13.369Z,11.90
2023-03-23T18:15:01.484Z,11.80
2023-03-23T18:19:50.116Z,11.70
2023-03-23T18:24:39.404Z,11.60
2023-03-23T18:29:25.814Z,11.50
2023-03-23T18:34:13.748Z,11.40
2023-03-23T18:39:05.521Z,11.20
2023-03-23T18:43:49.156Z,11.20
2023-03-23T18:48:37.609Z,11.10
2023-03-23T18:53:30.323Z,11.10
2023-03-23T18:58:15.542Z,11.00
2023-03-23T19:03:00.757Z,11.10
2023-03-23T19:07:53.206Z,11.00
2023-03-23T19:12:43.344Z,11.00
2023-03-23T19:17:27.056Z,11.10
2023-03-23T19:22:16.407Z,11.10
2023-03-23T19:27:04.930Z,11.00
2023-03-23T19:32:01.979Z,10.70
2023-03-23T19:37:04.124Z,10.50
2023-03-23T19:41:58.354Z,10.30
2023-03-23T19:46:45.823Z,10.10
2023-03-23T19:51:36.430Z,10.00
2023-03-23T19:56:23.065Z,9.90
2023-03-23T20:01:10.484Z,9.90
2023-03-23T20:06:04.025Z,10.00
2023-03-23T20:10:49.393Z,10.10
2023-03-23T20:15:34.027Z,10.10
2023-03-23T20:20:25.085Z,10.40
2023-03-23T20:25:11.560Z,10.60
2023-03-23T20:29:57.520Z,10.70
2023-03-23T20:34:50.225Z,10.90
2023-03-23T20:39:34.521Z,11.10
2023-03-23T20:44:25.268Z,11.20
2023-03-23T20:49:10.265Z,11.30
2023-03-23T20:54:00.172Z,11.50
2023-03-23T20:58:47.513Z,11.60
2023-03-23T21:03:40.351Z,11.70
2023-03-23T21:08:43.494Z,11.70
2023-03-23T21:13:27.446Z,11.90
2023-03-23T21:18:17.578Z,12.00
2023-03-23T21:23:02.698Z,12.10
2023-03-23T21:27:51.991Z,12.20
2023-03-23T21:32:37.281Z,12.00
2023-03-23T21:37:26.579Z,12.00
2023-03-23T21:42:14.109Z,12.10
2023-03-23T21:47:01.982Z,12.10
2023-03-23T21:51:54.565Z,12.00
2023-03-23T21:56:38.372Z,11.90
2023-03-23T22:01:30.206Z,11.90
2023-03-23T22:06:18.296Z,12.00
2023-03-23T22:11:02.895Z,12.10
2023-03-23T22:15:50.092Z,12.10
2023-03-23T22:20:38.104Z,12.20
2023-03-23T22:25:25.808Z,12.10
2023-03-23T22:30:14.520Z,12.10
2023-03-23T22:35:01.271Z,12.10
2023-03-23T22:39:51.846Z,12.10
2023-03-23T22:44:40.093Z,12.10
2023-03-23T22:49:26.844Z,12.20
2023-03-23T22:54:16.295Z,12.20
2023-03-23T22:59:02.818Z,12.30
2023-03-23T23:03:50.719Z,12.20
2023-03-23T23:08:37.428Z,12.10
2023-03-23T23:13:32.640Z,12.00
2023-03-23T23:18:31.343Z,11.90
2023-03-23T23:23:20.228Z,11.70
2023-03-23T23:28:07.662Z,11.50
2023-03-23T23:32:55.103Z,11.40
2023-03-23T23:37:41.947Z,11.30
2023-03-23T23:42:29.538Z,11.10
2023-03-23T23:47:18.958Z,11.00
2023-03-23T23:52:07.112Z,10.90
2023-03-23T23:56:55.186Z,10.90
